Aviation Digital Data Service (ADDS)

Output produced by METARs form (1242 UTC 28 August 2015)
found at http://www.aviationweather.gov/adds/metars/
 
KCXY 281156Z 27004KT 10SM CLR 16/13 A3021 RMK AO2 SLP231 T01610133 10161 20133 53017
KCXY 281056Z 25004KT 10SM CLR 14/12 A3019 RMK AO2 SLP222 T01390122
KCXY 280956Z AUTO 24004KT 10SM CLR 14/12 A3017 RMK AO2 SLP217 T01390122
KCXY 280856Z AUTO 22003KT 10SM CLR 14/12 A3016 RMK AO2 SLP214 T01390122 55001
KCXY 280756Z AUTO 00000KT 10SM CLR 15/13 A3016 RMK AO2 SLP212 T01500133
KCXY 280656Z AUTO 24004KT 10SM CLR 15/13 A3016 RMK AO2 SLP211 T01500133
KCXY 280556Z AUTO 23004KT 10SM BKN070 16/13 A3017 RMK AO2 SLP214 T01560133 10222 20156 51003
KCXY 280456Z AUTO 00000KT 10SM BKN070 16/14 A3016 RMK AO2 SLP214 T01610139 402390144
KCXY 280356Z AUTO 24003KT 10SM CLR 17/14 A3016 RMK AO2 SLP212 T01670139
KCXY 280256Z AUTO 00000KT 10SM BKN070 18/14 A3016 RMK AO2 SLP211 T01830144 51015
KCXY 280156Z AUTO 00000KT 10SM OVC070 18/14 A3015 RMK AO2 SLP208 T01830144
KCXY 280056Z AUTO 00000KT 10SM OVC070 20/14 A3014 RMK AO2 SLP205 T02000144
KCXY 272356Z 31003KT 10SM OVC070 22/13 A3011 RMK AO2 SLP196 T02170133 10239 20217 53005
KCXY 272256Z 30005KT 10SM OVC070 23/13 A3010 RMK AO2 SLP195 T02280128
KCXY 272156Z 33007KT 10SM OVC070 23/12 A3010 RMK AO2 SLP193 T02330117
KCXY 272056Z 34006KT 10SM FEW045 OVC070 24/12 A3010 RMK AO2 SLP191 T02390122 55007
KCXY 271956Z 29006KT 10SM OVC065 23/12 A3010 RMK AO2 SLP191 T02330122
KCXY 271856Z 31009KT 10SM OVC065 23/12 A3011 RMK AO2 SLP196 T02330117
KCXY 271756Z 33008KT 10SM OVC060 23/12 A3012 RMK AO2 SLP199 T02330117 10239 20172 56009
KCXY 271656Z 34007KT 10SM BKN060 23/12 A3013 RMK AO2 SLP201 T02280117
KCXY 271556Z 01006KT 10SM FEW042 23/12 A3013 RMK AO2 SLP204 T02330122
KCXY 271456Z 35006KT 10SM CLR 22/12 A3015 RMK AO2 SLP208 T02220122 53006
KCXY 271356Z 35004KT 10SM FEW031 21/12 A3014 RMK AO2 SLP207 T02110122
KCXY 271256Z VRB04KT 10SM CLR 20/13 A3013 RMK AO2 SLP203 T02000128
KCXY 271156Z 26005KT 10SM CLR 17/13 A3013 RMK AO2 SLP202 T01720128 10172 20144 53016
KCXY 271056Z 25003KT 10SM CLR 14/12 A3011 RMK AO2 SLP195 T01440117
KCXY 270956Z AUTO 26005KT 10SM CLR 15/12 A3009 RMK AO2 SLP188 T01500117
KCXY 270856Z AUTO 24005KT 10SM CLR 15/12 A3008 RMK AO2 SLP186 T01500122 53002
KCXY 270756Z AUTO 26004KT 10SM CLR 16/12 A3007 RMK AO2 SLP181 T01560122
KCXY 270656Z AUTO 26006KT 10SM CLR 16/12 A3007 RMK AO2 SLP182 T01560122
KCXY 270556Z AUTO 00000KT 10SM FEW085 16/12 A3008 RMK AO2 SLP184 T01610122 10211 20161 58001
KCXY 270456Z AUTO 26006KT 10SM FEW095 17/13 A3009 RMK AO2 SLP187 T01720128 402500161
KCXY 270356Z AUTO 24005KT 10SM FEW095 18/13 A3008 RMK AO2 SLP186 T01780128
KCXY 270256Z AUTO 27004KT 10SM FEW080 OVC090 18/13 A3008 RMK AO2 SLP185 T01830128 51020
KCXY 270156Z AUTO 25005KT 10SM CLR 18/13 A3007 RMK AO2 SLP181 T01830128
KCXY 270056Z AUTO 28004KT 10SM CLR 19/13 A3005 RMK AO2 SLP175 T01890128